createdAt,value
2022-10-04T00:00:01.021Z,16.03
2022-10-04T00:02:34.000Z,13.63
2022-10-04T00:05:08.680Z,15.83
2022-10-04T00:07:41.346Z,13.30
2022-10-04T00:10:20.453Z,19.23
2022-10-04T00:12:51.707Z,22.00
2022-10-04T00:15:23.632Z,17.93
2022-10-04T00:18:19.841Z,14.17
2022-10-04T00:21:01.453Z,17.23
2022-10-04T00:23:42.564Z,15.07
2022-10-04T00:26:17.328Z,13.23
2022-10-04T00:28:46.978Z,12.87
2022-10-04T00:31:23.518Z,14.60
2022-10-04T00:33:56.743Z,18.73
2022-10-04T00:36:46.945Z,16.67
2022-10-04T00:39:18.530Z,14.00
2022-10-04T00:41:58.072Z,13.00
2022-10-04T00:44:32.937Z,14.30
2022-10-04T00:47:03.684Z,11.80
2022-10-04T00:49:37.404Z,13.40
2022-10-04T00:52:13.944Z,11.57
2022-10-04T00:54:44.522Z,16.70
2022-10-04T00:57:17.861Z,12.53
2022-10-04T00:59:48.915Z,15.10
2022-10-04T01:02:21.586Z,9.47
2022-10-04T01:04:54.691Z,10.43
2022-10-04T01:07:30.290Z,10.53
2022-10-04T01:10:02.433Z,14.33
2022-10-04T01:12:50.927Z,11.90
2022-10-04T01:15:28.762Z,15.60
2022-10-04T01:18:11.814Z,15.07
2022-10-04T01:20:41.918Z,13.10
2022-10-04T01:23:12.256Z,13.40
2022-10-04T01:25:51.236Z,14.33
2022-10-04T01:28:19.330Z,17.87
2022-10-04T01:30:47.624Z,13.60
2022-10-04T01:33:15.680Z,11.80
2022-10-04T01:35:44.767Z,12.07
2022-10-04T01:38:14.089Z,14.20
2022-10-04T01:40:47.616Z,14.10
2022-10-04T01:43:22.740Z,16.53
2022-10-04T01:45:55.939Z,16.87
2022-10-04T01:48:26.792Z,13.73
2022-10-04T01:50:58.848Z,15.43
2022-10-04T01:53:30.403Z,14.33
2022-10-04T01:56:07.550Z,11.50
2022-10-04T01:58:42.631Z,15.07
2022-10-04T02:01:16.238Z,14.03
2022-10-04T02:03:49.353Z,13.53
2022-10-04T02:06:18.081Z,10.67
2022-10-04T02:08:51.678Z,13.03
2022-10-04T02:11:21.898Z,14.53
2022-10-04T02:13:54.095Z,11.73
2022-10-04T02:16:24.483Z,16.30
2022-10-04T02:18:53.650Z,14.77
2022-10-04T02:21:22.706Z,11.30
2022-10-04T02:23:53.886Z,17.50
2022-10-04T02:26:22.435Z,10.93
2022-10-04T02:28:50.599Z,15.17
2022-10-04T02:31:40.275Z,13.20
2022-10-04T02:34:08.849Z,11.60
2022-10-04T02:36:38.423Z,14.27
2022-10-04T02:39:14.026Z,14.07
2022-10-04T02:41:45.220Z,13.13
2022-10-04T02:44:17.203Z,15.53
2022-10-04T02:46:52.539Z,19.03
2022-10-04T02:49:27.797Z,18.37
2022-10-04T02:52:02.917Z,13.23
2022-10-04T02:54:37.253Z,15.13
2022-10-04T02:57:05.963Z,15.23
2022-10-04T02:59:35.623Z,17.53
2022-10-04T03:02:03.953Z,15.23
2022-10-04T03:04:34.535Z,19.27
2022-10-04T03:07:05.848Z,15.13
2022-10-04T03:09:37.135Z,17.80
2022-10-04T03:12:06.201Z,13.83
2022-10-04T03:14:35.195Z,24.40
2022-10-04T03:17:05.957Z,15.20
2022-10-04T03:19:35.856Z,16.43
2022-10-04T03:22:07.563Z,14.20
2022-10-04T03:24:40.705Z,15.63
2022-10-04T03:27:10.534Z,21.23
2022-10-04T03:29:42.817Z,17.77
2022-10-04T03:32:14.500Z,23.00
2022-10-04T03:34:48.428Z,13.40
2022-10-04T03:37:19.348Z,17.37
2022-10-04T03:39:52.192Z,17.33
2022-10-04T03:42:23.024Z,19.97
2022-10-04T03:44:54.575Z,16.60
2022-10-04T03:47:26.280Z,16.43
2022-10-04T03:49:55.839Z,13.90
2022-10-04T03:52:27.811Z,19.03
2022-10-04T03:55:02.556Z,17.20
2022-10-04T03:57:31.143Z,16.10
2022-10-04T04:00:00.264Z,18.70
2022-10-04T04:02:34.375Z,18.13
2022-10-04T04:05:11.215Z,12.63
2022-10-04T04:07:44.969Z,15.77
2022-10-04T04:10:22.709Z,12.83
2022-10-04T04:12:57.558Z,17.57
2022-10-04T04:15:31.153Z,12.30
2022-10-04T04:18:02.846Z,14.13
2022-10-04T04:20:34.720Z,18.77
2022-10-04T04:23:06.579Z,17.53
2022-10-04T04:25:39.609Z,12.13
2022-10-04T04:28:16.055Z,12.97
2022-10-04T04:30:48.001Z,10.90
2022-10-04T04:33:24.380Z,13.23
2022-10-04T04:35:56.405Z,14.60
2022-10-04T04:38:26.201Z,11.73
2022-10-04T04:40:55.964Z,11.80
2022-10-04T04:43:27.798Z,15.67
2022-10-04T04:46:22.432Z,7.77
2022-10-04T04:48:48.418Z,12.73
2022-10-04T04:51:21.854Z,16.03
2022-10-04T04:53:51.816Z,13.27
2022-10-04T04:56:24.805Z,13.20
2022-10-04T04:58:54.712Z,19.47
2022-10-04T05:01:26.403Z,17.07
2022-10-04T05:04:05.236Z,13.57
2022-10-04T05:06:35.573Z,13.87
2022-10-04T05:09:04.847Z,12.43
2022-10-04T05:11:37.299Z,12.77
2022-10-04T05:14:09.381Z,17.27
2022-10-04T05:16:42.178Z,15.87
2022-10-04T05:19:16.646Z,17.23
2022-10-04T05:21:47.823Z,16.30
2022-10-04T05:24:23.633Z,18.27
2022-10-04T05:26:55.222Z,13.10
2022-10-04T05:29:27.336Z,15.03
2022-10-04T05:32:06.266Z,11.50
2022-10-04T05:34:41.123Z,20.57
2022-10-04T05:37:35.553Z,11.43
2022-10-04T05:40:24.577Z,9.17
2022-10-04T05:42:55.273Z,17.37
2022-10-04T05:45:25.586Z,16.17
2022-10-04T05:47:55.278Z,15.73
2022-10-04T05:50:30.972Z,21.70
2022-10-04T05:53:18.481Z,14.37
2022-10-04T05:55:55.797Z,14.37
2022-10-04T05:58:48.159Z,18.57
2022-10-04T06:01:29.208Z,12.97
2022-10-04T06:04:17.669Z,13.63
2022-10-04T06:06:51.560Z,16.80
2022-10-04T06:09:37.653Z,13.57
2022-10-04T06:12:13.490Z,20.40
2022-10-04T06:15:08.899Z,19.07
2022-10-04T06:17:57.411Z,13.23
2022-10-04T06:20:59.523Z,20.93
2022-10-04T06:23:30.142Z,18.67
2022-10-04T06:26:02.675Z,23.30
2022-10-04T06:28:34.806Z,16.20
2022-10-04T06:31:27.446Z,19.37
2022-10-04T06:34:17.587Z,14.83
2022-10-04T06:37:09.754Z,14.30
2022-10-04T06:40:20.421Z,12.37
2022-10-04T06:43:20.813Z,13.37
2022-10-04T06:46:00.537Z,15.30
2022-10-04T06:49:13.981Z,15.00
2022-10-04T06:51:59.888Z,15.10
2022-10-04T06:54:40.177Z,19.23
2022-10-04T06:57:32.328Z,14.07
2022-10-04T07:00:13.295Z,18.10
2022-10-04T07:02:45.285Z,22.50
2022-10-04T07:05:20.157Z,19.20
2022-10-04T07:08:06.606Z,19.63
2022-10-04T07:10:40.228Z,17.37
2022-10-04T07:13:17.403Z,12.67
2022-10-04T07:15:52.028Z,16.03
2022-10-04T07:18:26.401Z,12.83
2022-10-04T07:21:02.131Z,16.17
2022-10-04T07:23:35.648Z,16.67
2022-10-04T07:26:14.342Z,13.23
2022-10-04T07:28:59.549Z,15.50
2022-10-04T07:31:29.684Z,12.00
2022-10-04T07:34:02.295Z,19.07
2022-10-04T07:36:39.773Z,13.57
2022-10-04T07:39:14.961Z,15.80
2022-10-04T07:41:50.011Z,14.20
2022-10-04T07:44:27.534Z,12.30
2022-10-04T07:46:59.904Z,13.73
2022-10-04T07:49:28.616Z,10.70
2022-10-04T07:52:25.538Z,14.27
2022-10-04T07:55:02.191Z,9.27
2022-10-04T07:57:39.828Z,15.17
2022-10-04T08:00:16.934Z,12.80
2022-10-04T08:02:53.650Z,13.83
2022-10-04T08:05:25.658Z,12.73
2022-10-04T08:08:23.814Z,17.23
2022-10-04T08:11:07.341Z,8.83
2022-10-04T08:13:43.014Z,13.47
2022-10-04T08:16:20.457Z,12.43
2022-10-04T08:19:01.466Z,15.90
2022-10-04T08:21:39.692Z,14.85
2022-10-04T08:24:17.775Z,9.85
2022-10-04T08:26:59.676Z,10.63
2022-10-04T08:29:51.695Z,10.00
2022-10-04T08:32:29.874Z,10.10
2022-10-04T08:35:20.063Z,10.27
2022-10-04T08:38:01.972Z,11.35
2022-10-04T08:41:17.020Z,11.98
2022-10-04T08:44:17.370Z,8.82
2022-10-04T08:47:22.335Z,10.73
2022-10-04T08:50:14.213Z,11.10
2022-10-04T08:53:26.452Z,13.95
2022-10-04T08:56:14.858Z,9.95
2022-10-04T08:59:13.785Z,8.85
2022-10-04T09:02:04.568Z,10.70
2022-10-04T09:05:09.749Z,11.77
2022-10-04T09:07:59.058Z,9.52
2022-10-04T09:10:39.254Z,10.70
2022-10-04T09:13:30.976Z,8.93
2022-10-04T09:16:10.693Z,12.45
2022-10-04T09:18:53.305Z,12.88
2022-10-04T09:21:44.365Z,13.07
2022-10-04T09:24:37.800Z,7.40
2022-10-04T09:27:49.981Z,6.15
2022-10-04T09:30:19.690Z,6.80
2022-10-04T09:33:19.257Z,12.38
2022-10-04T09:36:20.006Z,9.65
2022-10-04T09:39:30.985Z,11.70
2022-10-04T09:42:25.546Z,11.23
2022-10-04T09:45:06.333Z,9.90
2022-10-04T09:47:53.478Z,10.88
2022-10-04T09:50:47.954Z,6.75
2022-10-04T09:53:36.441Z,11.57
2022-10-04T09:56:41.647Z,5.45
2022-10-04T09:59:54.235Z,7.47
2022-10-04T10:03:12.140Z,7.60
2022-10-04T10:06:25.674Z,7.97
2022-10-04T10:09:06.401Z,7.10
2022-10-04T10:12:01.326Z,5.32
2022-10-04T10:15:01.079Z,7.85
2022-10-04T10:17:40.181Z,5.68
2022-10-04T10:20:33.870Z,7.45
2022-10-04T10:23:18.878Z,8.55
2022-10-04T10:26:04.187Z,5.85
2022-10-04T10:28:57.894Z,6.97
2022-10-04T10:31:50.952Z,5.32
2022-10-04T10:34:52.703Z,8.57
2022-10-04T10:37:37.522Z,5.82
2022-10-04T10:40:27.192Z,7.78
2022-10-04T10:43:20.835Z,6.53
2022-10-04T10:46:15.548Z,6.20
2022-10-04T10:49:04.111Z,7.90
2022-10-04T10:52:06.222Z,11.57
2022-10-04T10:54:52.187Z,14.00
2022-10-04T10:57:35.162Z,11.15
2022-10-04T11:00:17.408Z,9.35
2022-10-04T11:03:23.904Z,13.68
2022-10-04T11:06:30.107Z,8.32
2022-10-04T11:09:32.936Z,11.32
2022-10-04T11:12:28.433Z,8.88
2022-10-04T11:15:26.188Z,7.03
2022-10-04T11:18:19.776Z,10.82
2022-10-04T11:21:25.782Z,13.65
2022-10-04T11:24:35.571Z,8.40
2022-10-04T11:27:17.823Z,6.82
2022-10-04T11:30:03.994Z,6.35
2022-10-04T11:32:59.578Z,8.43
2022-10-04T11:36:15.585Z,8.45
2022-10-04T11:38:58.241Z,7.93
2022-10-04T11:41:44.039Z,7.85
2022-10-04T11:44:41.239Z,11.27
2022-10-04T11:47:21.670Z,27.08
2022-10-04T11:50:14.485Z,9.15
2022-10-04T11:53:11.941Z,9.93
2022-10-04T11:56:13.439Z,5.65
2022-10-04T11:59:01.755Z,9.48
2022-10-04T12:02:00.962Z,11.85
2022-10-04T12:05:05.119Z,10.23
2022-10-04T12:07:54.556Z,7.20
2022-10-04T12:10:29.824Z,7.53
2022-10-04T12:13:29.214Z,5.88
2022-10-04T12:16:24.180Z,10.85
2022-10-04T12:19:30.997Z,7.55
2022-10-04T12:22:24.497Z,7.80
2022-10-04T12:25:16.152Z,9.68
2022-10-04T12:28:01.742Z,8.25
2022-10-04T12:30:44.539Z,10.25
2022-10-04T12:33:20.165Z,7.88
2022-10-04T12:36:06.578Z,6.47
2022-10-04T12:38:47.158Z,8.07
2022-10-04T12:41:31.894Z,7.70
2022-10-04T12:44:14.001Z,6.57
2022-10-04T12:46:56.371Z,6.68
2022-10-04T12:49:38.130Z,6.78
2022-10-04T12:52:12.749Z,6.88
2022-10-04T12:54:44.566Z,9.20
2022-10-04T12:57:39.933Z,8.73
2022-10-04T13:00:17.436Z,7.30
2022-10-04T13:03:14.196Z,7.05
2022-10-04T13:05:55.579Z,4.72
2022-10-04T13:08:41.679Z,5.00
2022-10-04T13:11:39.804Z,4.82
2022-10-04T13:14:41.134Z,6.53
2022-10-04T13:17:28.309Z,6.50
2022-10-04T13:20:15.297Z,7.72
2022-10-04T13:22:56.901Z,7.30
2022-10-04T13:25:41.475Z,6.55
2022-10-04T13:28:23.236Z,6.17
2022-10-04T13:31:00.666Z,5.50
2022-10-04T13:33:36.899Z,6.77
2022-10-04T13:36:10.457Z,7.13
2022-10-04T13:39:09.446Z,5.15
2022-10-04T13:41:56.460Z,6.18
2022-10-04T13:44:55.071Z,6.55
2022-10-04T13:47:47.422Z,5.30
2022-10-04T13:50:38.651Z,6.15
2022-10-04T13:53:38.771Z,5.70
2022-10-04T13:56:40.242Z,6.47
2022-10-04T13:59:18.959Z,8.30
2022-10-04T14:02:19.575Z,11.32
2022-10-04T14:05:25.775Z,6.80
2022-10-04T14:08:19.356Z,5.53
2022-10-04T14:11:13.959Z,9.38
2022-10-04T14:14:23.865Z,6.82
2022-10-04T14:17:22.867Z,4.38
2022-10-04T14:20:27.708Z,8.25
2022-10-04T14:23:28.860Z,6.32
2022-10-04T14:26:32.646Z,8.18
2022-10-04T14:29:29.103Z,5.65
2022-10-04T14:32:47.385Z,6.25
2022-10-04T14:35:20.216Z,8.30
2022-10-04T14:38:23.178Z,7.90
2022-10-04T14:41:32.649Z,13.57
2022-10-04T14:45:00.708Z,7.20
2022-10-04T14:47:59.959Z,5.57
2022-10-04T14:50:33.869Z,5.13
2022-10-04T14:53:15.981Z,7.18
2022-10-04T14:56:09.355Z,7.25
2022-10-04T14:58:51.490Z,10.68
2022-10-04T15:01:22.278Z,8.95
2022-10-04T15:04:21.301Z,7.60
2022-10-04T15:06:52.199Z,10.10
2022-10-04T15:09:51.565Z,10.85
2022-10-04T15:13:10.617Z,9.55
2022-10-04T15:15:54.298Z,9.75
2022-10-04T15:18:33.796Z,10.68
2022-10-04T15:21:11.122Z,8.75
2022-10-04T15:23:43.133Z,12.15
2022-10-04T15:27:04.949Z,11.93
2022-10-04T15:29:44.460Z,9.00
2022-10-04T15:32:30.758Z,4.38
2022-10-04T15:35:16.830Z,9.15
2022-10-04T15:37:52.944Z,5.82
2022-10-04T15:40:30.157Z,11.07
2022-10-04T15:43:13.288Z,9.55
2022-10-04T15:46:07.722Z,9.55
2022-10-04T15:49:04.014Z,7.93
2022-10-04T15:51:51.130Z,10.57
2022-10-04T15:54:43.290Z,8.57
2022-10-04T15:57:28.911Z,11.23
2022-10-04T16:00:08.829Z,11.17
2022-10-04T16:02:53.465Z,10.00
2022-10-04T16:05:36.564Z,9.63
2022-10-04T16:08:53.293Z,10.97
2022-10-04T16:11:47.939Z,9.77
2022-10-04T16:14:31.120Z,9.90
2022-10-04T16:17:23.050Z,10.77
2022-10-04T16:20:17.642Z,12.83
2022-10-04T16:23:18.934Z,12.50
2022-10-04T16:25:48.021Z,10.80
2022-10-04T16:28:27.115Z,15.47
2022-10-04T16:31:21.670Z,16.20
2022-10-04T16:33:57.328Z,17.37
2022-10-04T16:36:28.537Z,18.57
2022-10-04T16:39:18.666Z,17.77
2022-10-04T16:41:57.865Z,18.37
2022-10-04T16:44:37.432Z,22.43
2022-10-04T16:47:20.409Z,18.20
2022-10-04T16:49:54.929Z,18.20
2022-10-04T16:52:39.544Z,20.57
2022-10-04T16:55:37.703Z,18.13
2022-10-04T16:58:42.087Z,18.33
2022-10-04T17:01:54.311Z,16.03
2022-10-04T17:05:01.283Z,18.47
2022-10-04T17:07:45.212Z,18.90
2022-10-04T17:10:21.599Z,20.67
2022-10-04T17:12:57.452Z,20.27
2022-10-04T17:15:39.047Z,29.80
2022-10-04T17:18:18.488Z,27.23
2022-10-04T17:20:57.854Z,26.00
2022-10-04T17:24:00.210Z,30.63
2022-10-04T17:26:43.798Z,25.80
2022-10-04T17:29:32.508Z,26.70
2022-10-04T17:32:10.006Z,28.53
2022-10-04T17:34:54.006Z,19.13
2022-10-04T17:37:31.681Z,21.53
2022-10-04T17:40:21.402Z,21.40
2022-10-04T17:43:00.571Z,22.10
2022-10-04T17:46:05.946Z,17.50
2022-10-04T17:49:01.922Z,17.63
2022-10-04T17:51:59.512Z,17.60
2022-10-04T17:54:51.251Z,19.43
2022-10-04T17:57:25.644Z,21.83
2022-10-04T18:00:06.764Z,22.87
2022-10-04T18:03:01.818Z,21.80
2022-10-04T18:05:34.056Z,19.40
2022-10-04T18:08:11.191Z,22.73
2022-10-04T18:10:47.760Z,23.83
2022-10-04T18:13:23.482Z,23.40
2022-10-04T18:15:55.523Z,18.73
2022-10-04T18:18:28.664Z,25.53
2022-10-04T18:21:19.211Z,22.37
2022-10-04T18:23:54.719Z,23.70
2022-10-04T18:26:25.992Z,22.67
2022-10-04T18:28:55.255Z,21.97
2022-10-04T18:31:36.432Z,21.40
2022-10-04T18:34:18.112Z,24.60
2022-10-04T18:37:05.647Z,18.47
2022-10-04T18:39:46.268Z,19.50
2022-10-04T18:42:23.531Z,20.57
2022-10-04T18:44:59.009Z,23.60
2022-10-04T18:47:33.988Z,25.67
2022-10-04T18:50:04.179Z,26.90
2022-10-04T18:52:43.738Z,24.63
2022-10-04T18:55:25.891Z,24.10
2022-10-04T18:58:23.095Z,23.50
2022-10-04T19:01:16.261Z,23.90
2022-10-04T19:03:51.407Z,17.13
2022-10-04T19:06:25.700Z,21.67
2022-10-04T19:09:04.088Z,22.53
2022-10-04T19:11:40.022Z,27.57
2022-10-04T19:14:21.068Z,20.37
2022-10-04T19:16:58.154Z,23.10
2022-10-04T19:19:40.667Z,22.37
2022-10-04T19:22:21.818Z,19.87
2022-10-04T19:25:07.516Z,25.03
2022-10-04T19:27:38.836Z,23.07
2022-10-04T19:30:19.752Z,19.30
2022-10-04T19:33:08.843Z,20.30
2022-10-04T19:35:51.479Z,22.93
2022-10-04T19:38:31.079Z,18.23
2022-10-04T19:41:07.791Z,24.87
2022-10-04T19:43:46.454Z,22.13
2022-10-04T19:46:27.272Z,23.57
2022-10-04T19:48:55.754Z,19.67
2022-10-04T19:51:31.104Z,26.97
2022-10-04T19:54:04.186Z,20.03
2022-10-04T19:56:36.908Z,26.23
2022-10-04T19:59:09.301Z,22.10
2022-10-04T20:01:38.779Z,29.70
2022-10-04T20:04:31.491Z,25.77
2022-10-04T20:07:02.589Z,30.70
2022-10-04T20:09:35.477Z,24.43
2022-10-04T20:12:04.283Z,22.20
2022-10-04T20:15:15.023Z,28.27
2022-10-04T20:17:45.490Z,24.80
2022-10-04T20:20:16.409Z,23.83
2022-10-04T20:23:00.164Z,27.60
2022-10-04T20:26:03.931Z,25.87
2022-10-04T20:28:43.406Z,26.83
2022-10-04T20:31:13.157Z,29.40
2022-10-04T20:33:52.377Z,33.17
2022-10-04T20:36:54.164Z,31.43
2022-10-04T20:40:01.888Z,30.77
2022-10-04T20:42:38.328Z,29.33
2022-10-04T20:45:24.100Z,33.67
2022-10-04T20:47:54.764Z,36.33
2022-10-04T20:50:42.266Z,38.17
2022-10-04T20:53:20.378Z,42.03
2022-10-04T20:55:49.293Z,40.93
2022-10-04T20:58:32.221Z,36.53
2022-10-04T21:01:02.745Z,38.37
2022-10-04T21:03:31.246Z,38.30
2022-10-04T21:06:06.413Z,35.73
2022-10-04T21:08:34.879Z,30.03
2022-10-04T21:11:20.521Z,31.23
2022-10-04T21:13:57.690Z,29.07
2022-10-04T21:16:46.629Z,28.57
2022-10-04T21:19:48.488Z,27.93
2022-10-04T21:22:40.570Z,27.30
2022-10-04T21:25:41.866Z,25.90
2022-10-04T21:28:32.759Z,26.27
2022-10-04T21:31:01.478Z,22.43
2022-10-04T21:33:29.433Z,23.73
2022-10-04T21:35:57.370Z,25.13
2022-10-04T21:38:26.624Z,23.90
2022-10-04T21:40:54.532Z,25.47
2022-10-04T21:43:23.074Z,22.33
2022-10-04T21:45:51.532Z,23.30
2022-10-04T21:48:21.823Z,25.03
2022-10-04T21:50:50.779Z,33.40
2022-10-04T21:53:18.751Z,29.83
2022-10-04T21:55:48.293Z,26.33
2022-10-04T21:58:16.286Z,25.77
2022-10-04T22:00:44.272Z,25.27
2022-10-04T22:03:12.229Z,30.47
2022-10-04T22:05:40.139Z,35.13
2022-10-04T22:08:08.094Z,31.60
2022-10-04T22:10:36.028Z,35.53
2022-10-04T22:13:05.307Z,37.20
2022-10-04T22:15:33.266Z,34.87
2022-10-04T22:18:01.190Z,30.73
2022-10-04T22:20:29.304Z,29.90
2022-10-04T22:22:57.661Z,35.30
2022-10-04T22:25:28.548Z,39.17
2022-10-04T22:27:56.612Z,42.87
2022-10-04T22:30:28.578Z,35.70
2022-10-04T22:32:58.242Z,36.13
2022-10-04T22:35:26.390Z,39.90
2022-10-04T22:37:54.777Z,39.03
2022-10-04T22:40:24.302Z,40.73
2022-10-04T22:42:53.953Z,50.17
2022-10-04T22:45:25.184Z,37.20
2022-10-04T22:47:56.142Z,49.23
2022-10-04T22:50:34.851Z,41.37
2022-10-04T22:53:08.618Z,52.47
2022-10-04T22:55:36.620Z,45.97
2022-10-04T22:58:04.841Z,45.93
2022-10-04T23:00:32.787Z,43.63
2022-10-04T23:03:02.618Z,44.10
2022-10-04T23:05:30.639Z,48.43
2022-10-04T23:07:58.562Z,45.07
2022-10-04T23:10:26.494Z,41.90
2022-10-04T23:12:54.450Z,46.03
2022-10-04T23:15:22.410Z,44.80
2022-10-04T23:17:55.218Z,40.20
2022-10-04T23:20:25.068Z,42.03
2022-10-04T23:22:55.267Z,42.43
2022-10-04T23:25:27.528Z,46.93
2022-10-04T23:27:57.693Z,43.73
2022-10-04T23:30:26.076Z,41.03
2022-10-04T23:32:58.435Z,39.13
2022-10-04T23:35:32.255Z,44.30
2022-10-04T23:38:03.602Z,47.57
2022-10-04T23:40:31.624Z,46.13
2022-10-04T23:43:06.654Z,52.13
2022-10-04T23:45:41.696Z,57.43
2022-10-04T23:48:12.718Z,56.23
2022-10-04T23:50:42.301Z,59.40
2022-10-04T23:53:17.606Z,53.37
2022-10-04T23:55:46.732Z,56.03
2022-10-04T23:58:16.401Z,56.27
